Donna Rushing — WDB9961 — position and weather

sailwx.info

Track history (hours):
 
Tides and Currents Weather Stations Pressure Air Temp Water Temp Dewpoint Dewpoint Depression Visibility Wind Speed Wind Dir Waves Ship Positions

Donna Rushing

Owner: AEP River Operations LLC, Chesterfield, MO. More information available from US FCC via Universal Licensing System and Coast Guard Vessel Documentation Center.

Last reported at 2014-Jan-01 03:33 UTC. Time now 2014-Oct-24 23:09 UTC.
Position N 30°08' W 090°55'.
Warning: this ship's position is months out of date.

Length 46 m.

Type: Towing. MMSI: 366985720.

Date/timePositionNaut miles runAvg speedWind from/ knotsBaromVisibWave heightAir tempDewpointWater temp
2014-Jan-01 03:33N 30°08' W 090°55'4 4.0
2014-Jan-01 02:27N 30°04' W 090°53'3 3.8
2014-Jan-01 01:33N 30°01' W 090°50'2 1.5
2014-Jan-01 00:30N 29°60' W 090°50'0 0.0
2013-Dec-31 22:22N 29°60' W 090°50'0 0.4
2013-Dec-31 21:26N 29°60' W 090°50'1 1.3
2013-Dec-31 20:33N 29°59' W 090°49'1 0.7
2013-Dec-31 19:33N 29°59' W 090°48'1 0.4
2013-Dec-31 17:26N 29°59' W 090°49'0 0.0
2013-Dec-31 16:31N 29°59' W 090°49'0 0.0
2013-Dec-31 04:16N 29°59' W 090°49'0 0.0
2013-Dec-31 03:06N 29°59' W 090°49'11 3.8
2013-Dec-31 00:15N 30°07' W 090°58'3 4.1
2013-Dec-30 23:33N 30°08' W 091°02'31 3.0
2013-Dec-30 13:05N 30°35' W 091°19'  
Track history (hours):
 
Tides and Currents Weather Stations Pressure Air Temp Water Temp Dewpoint Dewpoint Depression Visibility Wind Speed Wind Dir Waves Ship Positions

Donna Rushing

Owner: AEP River Operations LLC, Chesterfield, MO. More information available from US FCC via Universal Licensing System and Coast Guard Vessel Documentation Center.

Last reported at 2014-Jan-01 03:33 UTC. Time now 2014-Oct-24 23:09 UTC.
Position N 30°08' W 090°55'.
Warning: this ship's position is months out of date.

Length 46 m.

Type: Towing. MMSI: 366985720.

Date/timePositionNaut miles runAvg speedWind from/ knotsBaromVisibWave heightAir tempDewpointWater temp
2014-Jan-01 03:33N 30°08' W 090°55'4 4.0
2014-Jan-01 02:27N 30°04' W 090°53'3 3.8
2014-Jan-01 01:33N 30°01' W 090°50'2 1.5
2014-Jan-01 00:30N 29°60' W 090°50'0 0.0
2013-Dec-31 22:22N 29°60' W 090°50'0 0.4
2013-Dec-31 21:26N 29°60' W 090°50'1 1.3
2013-Dec-31 20:33N 29°59' W 090°49'1 0.7
2013-Dec-31 19:33N 29°59' W 090°48'1 0.4
2013-Dec-31 17:26N 29°59' W 090°49'0 0.0
2013-Dec-31 16:31N 29°59' W 090°49'0 0.0
2013-Dec-31 04:16N 29°59' W 090°49'0 0.0
2013-Dec-31 03:06N 29°59' W 090°49'11 3.8
2013-Dec-31 00:15N 30°07' W 090°58'3 4.1
2013-Dec-30 23:33N 30°08' W 091°02'31 3.0
2013-Dec-30 13:05N 30°35' W 091°19'  

Dump ship's entire track history